createdAt,value
2023-08-15T00:01:12.687Z,25.20
2023-08-15T00:03:39.227Z,25.07
2023-08-15T00:06:05.752Z,25.13
2023-08-15T00:08:32.330Z,25.24
2023-08-15T00:10:58.882Z,25.28
2023-08-15T00:13:25.350Z,25.17
2023-08-15T00:15:51.887Z,25.24
2023-08-15T00:18:18.361Z,25.26
2023-08-15T00:20:48.518Z,25.17
2023-08-15T00:23:15.454Z,25.01
2023-08-15T00:25:43.715Z,24.89
2023-08-15T00:28:10.442Z,24.81
2023-08-15T00:30:37.136Z,25.10
2023-08-15T00:33:03.791Z,25.07
2023-08-15T00:35:30.447Z,25.11
2023-08-15T00:37:57.235Z,25.13
2023-08-15T00:40:24.413Z,25.19
2023-08-15T00:42:51.023Z,25.00
2023-08-15T00:45:17.541Z,25.01
2023-08-15T00:47:44.537Z,25.00
2023-08-15T00:50:11.414Z,25.04
2023-08-15T00:52:38.824Z,25.14
2023-08-15T00:55:07.426Z,25.19
2023-08-15T00:57:37.197Z,25.01
2023-08-15T01:00:04.856Z,25.19
2023-08-15T01:02:31.708Z,25.09
2023-08-15T01:04:58.405Z,25.05
2023-08-15T01:07:24.934Z,25.06
2023-08-15T01:09:51.386Z,24.92
2023-08-15T01:12:24.110Z,24.93
2023-08-15T01:14:59.470Z,25.17
2023-08-15T01:17:50.889Z,24.96
2023-08-15T01:20:24.120Z,25.00
2023-08-15T01:22:53.910Z,24.97
2023-08-15T01:25:20.449Z,24.82
2023-08-15T01:27:46.958Z,24.92
2023-08-15T01:30:16.118Z,24.93
2023-08-15T01:32:49.904Z,25.13
2023-08-15T01:35:17.911Z,25.05
2023-08-15T01:37:49.009Z,24.94
2023-08-15T01:40:18.451Z,25.02
2023-08-15T01:42:47.482Z,25.08
2023-08-15T01:45:14.846Z,25.02
2023-08-15T01:47:41.435Z,25.04
2023-08-15T01:50:08.665Z,24.87
2023-08-15T01:52:35.260Z,24.86
2023-08-15T01:55:01.953Z,24.95
2023-08-15T01:57:28.487Z,25.16
2023-08-15T09:49:54.517Z,24.23
2023-08-15T09:52:21.667Z,24.43
2023-08-15T09:54:48.997Z,24.63
2023-08-15T09:57:15.841Z,24.57
2023-08-15T09:59:42.698Z,24.48
2023-08-15T10:02:21.241Z,24.79
2023-08-15T10:04:53.201Z,24.79
2023-08-15T10:07:22.918Z,24.90
2023-08-15T10:09:51.860Z,24.87
2023-08-15T10:12:19.416Z,24.84
2023-08-15T10:14:46.956Z,24.88
2023-08-15T10:17:13.851Z,24.89
2023-08-15T10:19:46.470Z,24.99
2023-08-15T10:22:19.025Z,24.94
2023-08-15T10:24:46.098Z,24.96
2023-08-15T10:27:16.487Z,24.92
2023-08-15T10:30:00.444Z,25.06
2023-08-15T10:32:29.652Z,24.93
2023-08-15T10:34:59.924Z,25.05
2023-08-15T10:37:39.994Z,25.05
2023-08-15T10:40:13.419Z,25.13
2023-08-15T10:43:03.283Z,25.13
2023-08-15T10:45:39.441Z,25.16
2023-08-15T10:48:09.265Z,25.09
2023-08-15T10:50:37.381Z,25.08
2023-08-15T10:53:04.864Z,25.27
2023-08-15T10:55:34.278Z,25.10
2023-08-15T10:58:09.608Z,25.08
2023-08-15T11:00:37.546Z,25.07
2023-08-15T11:03:04.802Z,25.05
2023-08-15T11:05:31.402Z,25.01
2023-08-15T11:08:15.349Z,25.26
2023-08-15T11:10:49.382Z,24.90
2023-08-15T11:13:19.428Z,24.94
2023-08-15T11:15:46.477Z,25.00
2023-08-15T11:18:23.218Z,24.90
2023-08-15T11:20:51.574Z,24.98
2023-08-15T11:23:18.272Z,25.00
2023-08-15T11:25:44.765Z,25.01
2023-08-15T11:28:11.272Z,25.05
2023-08-15T11:30:37.883Z,25.08
2023-08-15T11:33:04.790Z,25.00
2023-08-15T11:35:31.419Z,25.08
2023-08-15T11:38:01.790Z,25.12
2023-08-15T11:40:28.330Z,25.12
2023-08-15T11:42:55.253Z,25.15
2023-08-15T11:45:24.964Z,24.82
2023-08-15T11:48:01.393Z,24.77
2023-08-15T11:50:43.644Z,24.89
2023-08-15T11:53:13.787Z,24.99
2023-08-15T11:55:40.835Z,24.87
2023-08-15T11:58:31.424Z,24.96
2023-08-15T12:01:08.489Z,25.05
2023-08-15T12:03:35.983Z,25.11
2023-08-15T12:06:06.603Z,25.08
2023-08-15T12:08:33.689Z,25.16
2023-08-15T12:11:05.102Z,25.17
2023-08-15T12:13:35.373Z,25.21
2023-08-15T12:16:03.742Z,24.91
2023-08-15T12:18:31.552Z,25.02
2023-08-15T12:20:58.397Z,25.15
2023-08-15T12:23:28.866Z,25.35
2023-08-15T12:25:56.608Z,25.41
2023-08-15T12:28:23.726Z,25.44
2023-08-15T12:30:50.800Z,25.16
2023-08-15T12:33:27.394Z,25.26
2023-08-15T12:36:04.256Z,25.16
2023-08-15T12:38:30.772Z,25.39
2023-08-15T12:40:57.285Z,25.22
2023-08-15T12:43:23.762Z,24.99
2023-08-15T12:45:50.396Z,25.27
2023-08-15T12:48:16.964Z,25.26
2023-08-15T12:50:43.549Z,25.26
2023-08-15T12:53:10.244Z,25.10
2023-08-15T12:55:37.073Z,25.19
2023-08-15T12:58:04.193Z,25.02
2023-08-15T13:00:31.198Z,25.11
2023-08-15T13:02:58.889Z,25.08
2023-08-15T13:05:25.711Z,24.97
2023-08-15T13:07:52.528Z,25.08
2023-08-15T13:10:19.103Z,25.05
2023-08-15T13:12:45.569Z,25.05
2023-08-15T13:15:12.533Z,24.99
2023-08-15T13:17:39.249Z,25.07
2023-08-15T13:20:06.644Z,24.97
2023-08-15T13:22:33.174Z,25.02
2023-08-15T13:24:59.765Z,24.98
2023-08-15T13:27:26.399Z,24.98
2023-08-15T13:29:53.021Z,24.99
2023-08-15T13:32:19.716Z,25.00
2023-08-15T13:34:46.513Z,24.95
2023-08-15T13:37:13.047Z,25.12
2023-08-15T13:39:39.567Z,25.30
2023-08-15T13:42:06.430Z,25.11
2023-08-15T13:44:32.956Z,25.32
2023-08-15T13:46:59.410Z,25.11
2023-08-15T13:49:26.045Z,25.02
2023-08-15T13:51:52.587Z,24.86
2023-08-15T13:54:19.139Z,25.25
2023-08-15T13:56:45.594Z,25.25
2023-08-15T13:59:12.049Z,25.16
2023-08-15T14:01:38.594Z,25.37
2023-08-15T14:04:05.424Z,25.41
2023-08-15T14:06:32.022Z,25.30
2023-08-15T14:08:58.557Z,25.21
2023-08-15T14:11:25.092Z,25.28
2023-08-15T14:13:51.590Z,25.33
2023-08-15T14:16:18.282Z,25.40
2023-08-15T14:18:44.811Z,25.38
2023-08-15T14:21:15.312Z,25.16
2023-08-15T14:23:45.272Z,25.10
2023-08-15T14:26:12.155Z,25.02
2023-08-15T14:28:38.704Z,25.04
2023-08-15T14:31:06.153Z,25.04
2023-08-15T14:33:32.941Z,25.07
2023-08-15T14:35:59.741Z,25.15
2023-08-15T14:38:29.650Z,25.07
2023-08-15T14:40:56.152Z,24.95
2023-08-15T14:43:22.668Z,24.98
2023-08-15T14:45:49.218Z,25.09
2023-08-15T14:48:15.870Z,24.93
2023-08-15T14:50:43.017Z,25.05
2023-08-15T14:53:09.660Z,24.93
2023-08-15T14:55:36.211Z,24.87
2023-08-15T14:58:03.309Z,24.87
2023-08-15T15:00:29.840Z,24.91
2023-08-15T15:02:56.446Z,25.03
2023-08-15T15:05:23.718Z,24.97
2023-08-15T15:07:50.751Z,25.02
2023-08-15T15:10:17.427Z,25.01
2023-08-15T15:12:44.047Z,24.88
2023-08-15T15:15:10.894Z,25.33
2023-08-15T15:17:37.480Z,25.51
2023-08-15T15:20:04.973Z,25.55
2023-08-15T15:22:31.608Z,25.50
2023-08-15T15:24:58.679Z,25.58
2023-08-15T15:27:25.597Z,25.51
2023-08-15T15:29:52.310Z,25.59
2023-08-15T15:32:18.811Z,25.72
2023-08-15T15:34:45.282Z,25.66
2023-08-15T15:37:11.849Z,25.55
2023-08-15T15:39:38.375Z,25.50
2023-08-15T15:42:04.974Z,25.46
2023-08-15T15:44:35.042Z,25.25
2023-08-15T15:47:02.383Z,25.32
2023-08-15T15:49:29.114Z,25.41
2023-08-15T15:51:55.872Z,25.34
2023-08-15T15:54:22.488Z,25.31
2023-08-15T15:56:49.087Z,25.44
2023-08-15T15:59:15.699Z,25.25
2023-08-15T16:01:42.363Z,25.16
2023-08-15T16:04:09.076Z,25.21
2023-08-15T16:06:35.641Z,25.29
2023-08-15T16:09:02.121Z,25.16
2023-08-15T16:11:28.628Z,25.28
2023-08-15T16:13:55.092Z,25.29
2023-08-15T16:16:21.801Z,25.30
2023-08-15T16:18:48.688Z,25.28
2023-08-15T16:21:18.629Z,25.27
2023-08-15T16:23:45.885Z,25.28
2023-08-15T16:26:12.500Z,25.32
2023-08-15T16:28:41.174Z,25.35
2023-08-15T16:31:08.529Z,25.64
2023-08-15T16:33:35.100Z,25.56
2023-08-15T16:36:01.614Z,25.73
2023-08-15T16:38:28.812Z,25.75
2023-08-15T16:40:55.779Z,25.64
2023-08-15T16:43:22.370Z,25.45
2023-08-15T16:45:49.019Z,25.36
2023-08-15T16:48:15.741Z,25.41
2023-08-15T16:50:43.443Z,25.47
2023-08-15T16:53:10.757Z,25.39
2023-08-15T16:55:37.386Z,25.42
2023-08-15T16:58:04.456Z,25.45
2023-08-15T17:00:31.045Z,25.33
2023-08-15T17:02:58.120Z,25.38
2023-08-15T17:05:25.415Z,25.30
2023-08-15T17:07:52.268Z,25.59
2023-08-15T17:10:19.151Z,25.46
2023-08-15T17:12:47.490Z,25.30
2023-08-15T17:15:16.381Z,25.39
2023-08-15T17:17:45.783Z,25.33
2023-08-15T17:20:12.636Z,25.36
2023-08-15T17:22:39.276Z,25.32
2023-08-15T17:25:06.384Z,25.26
2023-08-15T17:27:33.043Z,25.29
2023-08-15T17:29:59.568Z,25.24
2023-08-15T17:32:26.757Z,25.39
2023-08-15T17:34:53.556Z,25.34
2023-08-15T17:37:20.110Z,25.51
2023-08-15T17:39:46.616Z,25.47
2023-08-15T17:42:13.161Z,25.41
2023-08-15T17:44:39.706Z,25.42
2023-08-15T17:47:06.829Z,25.36
2023-08-15T17:49:33.678Z,25.32
2023-08-15T17:52:00.261Z,25.35
2023-08-15T17:54:27.140Z,25.44
2023-08-15T17:56:53.683Z,25.38
2023-08-15T17:59:20.248Z,25.38
2023-08-15T18:01:46.826Z,25.18
2023-08-15T18:04:13.685Z,25.23
2023-08-15T18:06:40.289Z,25.27
2023-08-15T18:09:06.850Z,25.28
2023-08-15T18:11:33.522Z,25.26
2023-08-15T18:14:01.617Z,25.27
2023-08-15T18:16:29.063Z,25.26
2023-08-15T18:18:55.811Z,25.30
2023-08-15T18:21:22.438Z,25.30
2023-08-15T18:23:49.169Z,25.19
2023-08-15T18:26:15.723Z,25.33
2023-08-15T18:28:42.760Z,25.30
2023-08-15T18:31:09.313Z,25.26
2023-08-15T18:33:35.827Z,25.29
2023-08-15T18:36:02.441Z,25.28
2023-08-15T18:38:30.886Z,25.30
2023-08-15T18:40:57.415Z,25.33
2023-08-15T18:43:24.190Z,25.38
2023-08-15T18:45:51.116Z,25.21
2023-08-15T18:48:19.413Z,25.34
2023-08-15T18:50:46.001Z,25.43
2023-08-15T18:53:12.543Z,25.51
2023-08-15T18:55:42.140Z,25.45
2023-08-15T18:58:10.435Z,25.52
2023-08-15T19:00:39.810Z,25.26
2023-08-15T19:03:06.850Z,25.40
2023-08-15T19:05:33.887Z,25.44
2023-08-15T19:08:00.875Z,25.24
2023-08-15T19:10:27.639Z,25.29
2023-08-15T19:12:54.285Z,25.28
2023-08-15T19:15:22.055Z,25.44
2023-08-15T19:17:51.985Z,25.21
2023-08-15T19:20:22.488Z,25.33
2023-08-15T19:22:49.454Z,25.41
2023-08-15T19:25:16.920Z,25.42
2023-08-15T19:27:44.082Z,25.42
2023-08-15T19:30:11.240Z,25.40
2023-08-15T19:32:37.808Z,25.46
2023-08-15T19:35:05.346Z,25.29
2023-08-15T19:37:37.884Z,25.35
2023-08-15T19:40:07.748Z,25.31
2023-08-15T19:42:39.087Z,25.31
2023-08-15T19:45:06.929Z,25.28
2023-08-15T19:47:33.955Z,25.24
2023-08-15T19:50:00.675Z,25.33
2023-08-15T19:52:27.182Z,25.46
2023-08-15T19:54:53.721Z,25.36
2023-08-15T19:57:20.203Z,25.38
2023-08-15T19:59:46.706Z,25.37
2023-08-15T20:02:14.735Z,25.33
2023-08-15T20:04:41.501Z,25.25
2023-08-15T20:07:08.048Z,25.33
2023-08-15T20:09:34.633Z,25.31
2023-08-15T20:12:01.137Z,25.22
2023-08-15T20:14:28.898Z,25.42
2023-08-15T20:16:55.608Z,25.38
2023-08-15T20:19:22.162Z,25.44
2023-08-15T20:21:49.269Z,25.39
2023-08-15T20:24:15.796Z,25.36
2023-08-15T20:26:42.316Z,25.43
2023-08-15T20:29:08.954Z,25.31
2023-08-15T20:31:35.642Z,25.44
2023-08-15T20:34:02.241Z,25.42
2023-08-15T20:36:28.774Z,25.25
2023-08-15T20:38:55.275Z,25.26
2023-08-15T20:41:21.864Z,25.17
2023-08-15T20:43:48.456Z,25.06
2023-08-15T20:46:15.021Z,25.07
2023-08-15T20:48:41.600Z,25.38
2023-08-15T20:51:08.313Z,25.53
2023-08-15T20:53:34.802Z,25.50
2023-08-15T20:56:01.356Z,25.44
2023-08-15T20:58:27.831Z,25.56
2023-08-15T21:00:54.493Z,25.51
2023-08-15T21:03:21.111Z,25.54
2023-08-15T21:05:47.613Z,25.55
2023-08-15T21:08:14.126Z,25.47
2023-08-15T21:10:40.658Z,25.56
2023-08-15T21:13:07.132Z,25.14
2023-08-15T21:15:33.951Z,25.06
2023-08-15T21:18:00.608Z,25.04
2023-08-15T21:20:27.149Z,25.16
2023-08-15T21:22:53.629Z,25.15
2023-08-15T21:25:20.133Z,25.20
2023-08-15T21:27:46.617Z,25.17
2023-08-15T21:30:13.419Z,25.15
2023-08-15T21:32:40.043Z,25.21
2023-08-15T21:35:06.856Z,25.31
2023-08-15T21:37:33.377Z,25.02
2023-08-15T21:39:59.843Z,25.34
2023-08-15T21:42:26.379Z,25.30
2023-08-15T21:44:52.869Z,25.20
2023-08-15T21:47:19.370Z,25.28
2023-08-15T21:49:45.927Z,25.21
2023-08-15T21:52:12.406Z,25.14
2023-08-15T21:54:38.892Z,25.30
2023-08-15T21:57:06.293Z,25.23
2023-08-15T21:59:35.579Z,25.27
2023-08-15T22:02:02.274Z,25.34
2023-08-15T22:04:28.930Z,25.10
2023-08-15T22:06:55.470Z,25.00
2023-08-15T22:09:22.061Z,25.29
2023-08-15T22:11:48.510Z,25.44
2023-08-15T22:14:17.949Z,25.25
2023-08-15T22:16:45.337Z,25.29
2023-08-15T22:19:11.893Z,25.09
2023-08-15T22:21:38.755Z,24.87
2023-08-15T22:24:05.582Z,24.94
2023-08-15T22:26:32.524Z,25.23
2023-08-15T22:28:58.993Z,25.21
2023-08-15T22:31:25.517Z,25.09
2023-08-15T22:33:52.003Z,25.00
2023-08-15T22:36:18.460Z,24.99
2023-08-15T22:38:44.919Z,25.12
2023-08-15T22:41:11.423Z,25.16
2023-08-15T22:43:37.893Z,25.03
2023-08-15T22:46:04.708Z,25.16
2023-08-15T22:48:31.234Z,25.11
2023-08-15T22:50:57.740Z,25.05
2023-08-15T22:53:24.236Z,24.96
2023-08-15T22:55:50.689Z,24.85
2023-08-15T22:58:18.684Z,25.20
2023-08-15T23:00:46.715Z,25.22
2023-08-15T23:03:13.306Z,25.25
2023-08-15T23:05:39.817Z,25.36
2023-08-15T23:08:06.493Z,25.20
2023-08-15T23:10:41.766Z,25.37
2023-08-15T23:13:08.257Z,25.32
2023-08-15T23:15:34.939Z,25.33
2023-08-15T23:18:01.559Z,25.28
2023-08-15T23:20:28.173Z,25.11
2023-08-15T23:22:54.649Z,25.13
2023-08-15T23:25:21.124Z,25.05
2023-08-15T23:27:47.785Z,25.13
2023-08-15T23:30:15.267Z,25.26
2023-08-15T23:32:41.824Z,25.33
2023-08-15T23:35:08.866Z,25.34
2023-08-15T23:37:35.464Z,25.03
2023-08-15T23:40:02.294Z,24.93
2023-08-15T23:42:28.846Z,25.29
2023-08-15T23:44:55.486Z,25.50
2023-08-15T23:47:22.278Z,25.30
2023-08-15T23:49:49.220Z,25.14
2023-08-15T23:52:15.848Z,25.21
2023-08-15T23:54:42.438Z,25.20
2023-08-15T23:57:08.908Z,25.14
2023-08-15T23:59:35.395Z,25.07
